Time;durP1;ratioP1;P1;durP2;ratioP2;P2;SDS_P1;SDS_P2;PMS_P1;PMS_P2;Temp;Humidity;BMP_temperature;BMP_pressure;BME280_temperature;BME280_humidity;BME280_pressure;Samples;Min_cycle;Max_cycle;Signal;HPM_P1;HPM_P2
2022/09/07 00:01:23;;;;;;;6.30;2.23;;;;;;;23.75;51.92;97285.28;5050382;28;20194;-70
2022/09/07 00:03:48;;;;;;;4.63;2.00;;;;;;;23.73;51.94;97283.88;5062810;28;20265;-70
2022/09/07 00:06:14;;;;;;;4.40;1.90;;;;;;;23.80;51.77;97281.88;5001770;28;20179;-71
2022/09/07 00:08:42;;;;;;;5.83;2.00;;;;;;;23.85;51.38;97283.84;5013057;28;20298;-70
2022/09/07 00:11:13;;;;;;;6.30;2.17;;;;;;;23.91;51.55;97266.88;5060284;28;20600;-71
2022/09/07 00:13:40;;;;;;;9.63;2.00;;;;;;;23.86;51.71;97275.59;5051325;28;20479;-69
2022/09/07 00:16:17;;;;;;;5.70;1.70;;;;;;;23.89;51.53;97258.25;5058419;28;20441;-70
2022/09/07 00:18:43;;;;;;;4.47;1.90;;;;;;;23.93;51.62;97257.53;5068065;28;20413;-70
2022/09/07 00:21:09;;;;;;;7.27;2.13;;;;;;;23.97;51.44;97252.56;5062844;28;20429;-71
2022/09/07 00:23:36;;;;;;;6.37;2.13;;;;;;;23.98;51.70;97256.84;5065478;28;20218;-71
2022/09/07 00:26:07;;;;;;;2.33;1.70;;;;;;;23.98;51.48;97258.72;5068825;28;20425;-70
2022/09/07 00:28:33;;;;;;;8.77;2.03;;;;;;;24.01;51.57;97248.34;5059672;28;20452;-70
2022/09/07 00:30:59;;;;;;;4.63;1.83;;;;;;;24.02;51.47;97252.66;5052962;28;20523;-71
2022/09/07 00:33:24;;;;;;;2.30;1.80;;;;;;;24.03;51.42;97243.59;5067601;28;20852;-70
2022/09/07 00:35:50;;;;;;;2.90;2.00;;;;;;;24.04;51.58;97239.03;5060789;28;20198;-70
2022/09/07 00:38:16;;;;;;;4.27;1.70;;;;;;;24.01;51.45;97224.28;5068383;28;20224;-70
2022/09/07 00:40:41;;;;;;;3.47;1.97;;;;;;;23.98;51.77;97224.75;5063532;28;20664;-71
2022/09/07 00:43:28;;;;;;;5.23;1.90;;;;;;;23.95;51.83;97219.03;5068781;28;20210;-71
2022/09/07 00:45:54;;;;;;;3.57;2.03;;;;;;;23.89;52.66;97220.78;5056817;28;20618;-71
2022/09/07 00:48:20;;;;;;;5.47;2.03;;;;;;;23.85;52.73;97220.47;5070633;28;20460;-70
2022/09/07 00:50:52;;;;;;;6.13;2.20;;;;;;;23.74;53.22;97219.44;5065765;28;20183;-70
2022/09/07 00:53:25;;;;;;;2.70;1.70;;;;;;;23.63;53.70;97212.25;5063187;28;20519;-70
2022/09/07 00:55:51;;;;;;;3.80;2.10;;;;;;;23.62;53.91;97199.94;5068229;28;20456;-70
2022/09/07 00:58:18;;;;;;;4.43;1.87;;;;;;;23.58;54.06;97204.13;5063545;28;20939;-69
2022/09/07 01:00:45;;;;;;;6.93;1.93;;;;;;;23.62;53.70;97202.59;5058480;28;20430;-71
2022/09/07 01:03:11;;;;;;;3.20;1.83;;;;;;;23.66;53.43;97210.97;5046177;28;20452;-70
2022/09/07 01:05:42;;;;;;;3.47;2.03;;;;;;;23.62;53.51;97198.09;5071283;28;20429;-70
2022/09/07 01:08:08;;;;;;;7.33;1.97;;;;;;;23.63;53.13;97201.56;5059440;28;20211;-71
2022/09/07 01:10:34;;;;;;;2.90;1.77;;;;;;;23.60;54.02;97191.31;5058418;28;20420;-71
2022/09/07 01:13:00;;;;;;;4.87;2.23;;;;;;;23.61;54.02;97195.63;5055998;28;21002;-72
2022/09/07 01:16:02;;;;;;;4.60;2.07;;;;;;;23.45;54.88;97195.31;5068973;28;20327;-70
2022/09/07 01:18:36;;;;;;;3.43;1.80;;;;;;;23.45;55.10;97189.97;5037343;28;20600;-70
2022/09/07 01:21:08;;;;;;;6.17;2.07;;;;;;;23.49;54.99;97187.66;5061796;28;20452;-71
2022/09/07 01:23:58;;;;;;;2.37;1.93;;;;;;;23.49;55.04;97190.31;5058684;28;20960;-71
2022/09/07 01:26:46;;;;;;;4.73;2.00;;;;;;;23.44;54.73;97187.53;5069166;28;20413;-70
2022/09/07 01:29:42;;;;;;;3.20;2.23;;;;;;;23.33;55.28;97202.53;5048321;28;20473;-71
2022/09/07 01:32:20;;;;;;;6.30;2.90;;;;;;;23.34;55.11;97198.81;5050391;28;20457;-71
2022/09/07 01:34:51;;;;;;;4.70;1.83;;;;;;;23.36;55.10;97203.94;5067038;28;20859;-71
2022/09/07 01:37:26;;;;;;;9.30;2.00;;;;;;;23.31;55.62;97210.00;5059217;28;20837;-72
2022/09/07 01:39:59;;;;;;;3.57;2.10;;;;;;;23.20;55.88;97216.97;5066716;28;20420;-71
2022/09/07 01:42:30;;;;;;;4.47;1.90;;;;;;;23.22;55.84;97216.72;5063139;28;21014;-71
2022/09/07 01:44:57;;;;;;;4.37;2.40;;;;;;;23.25;55.26;97222.41;5048869;28;20455;-71
2022/09/07 01:47:29;;;;;;;3.43;2.13;;;;;;;23.25;54.96;97213.59;5045126;28;20789;-71
2022/09/07 01:50:00;;;;;;;3.37;2.13;;;;;;;23.27;54.80;97227.53;5057045;28;20997;-71
2022/09/07 01:52:58;;;;;;;5.47;2.30;;;;;;;23.27;55.06;97222.19;5061972;28;20455;-71
2022/09/07 01:55:50;;;;;;;5.83;2.00;;;;;;;23.33;55.24;97228.47;5067938;28;20433;-73
2022/09/07 01:58:23;;;;;;;8.73;2.60;;;;;;;23.39;54.86;97223.00;5059156;28;20836;-71
2022/09/07 02:01:03;;;;;;;2.90;2.03;;;;;;;23.41;54.65;97236.94;5050570;28;20926;-73
2022/09/07 02:03:48;;;;;;;4.20;2.30;;;;;;;23.44;54.69;97225.75;5057563;28;20528;-72
2022/09/07 02:06:19;;;;;;;9.47;2.00;;;;;;;23.48;54.53;97236.84;5066080;28;20929;-71
2022/09/07 02:08:56;;;;;;;6.83;2.20;;;;;;;23.49;54.30;97229.59;5058775;28;20465;-71
2022/09/07 02:11:41;;;;;;;4.00;1.90;;;;;;;23.47;54.07;97233.31;5059876;28;21047;-71
2022/09/07 02:14:24;;;;;;;5.47;2.40;;;;;;;23.53;54.01;97244.94;5067909;28;20500;-70
2022/09/07 02:16:57;;;;;;;5.30;2.50;;;;;;;23.53;54.10;97241.47;5042636;28;20876;-72
2022/09/07 02:19:24;;;;;;;3.07;2.30;;;;;;;23.53;54.06;97244.94;5068781;28;20428;-71
2022/09/07 02:21:56;;;;;;;9.47;2.73;;;;;;;23.52;54.06;97247.88;5056820;28;20507;-71
2022/09/07 02:24:34;;;;;;;6.00;2.30;;;;;;;23.52;54.49;97253.22;5063053;28;20422;-71
2022/09/07 02:27:03;;;;;;;5.10;2.10;;;;;;;23.52;54.62;97247.88;5065603;28;20418;-71
2022/09/07 02:29:29;;;;;;;5.13;2.50;;;;;;;23.49;54.44;97259.03;5048613;28;20549;-71
2022/09/07 02:31:54;;;;;;;7.07;2.43;;;;;;;23.45;54.83;97254.13;5049707;28;20940;-71
2022/09/07 02:34:20;;;;;;;4.80;2.03;;;;;;;23.44;55.05;97252.50;5064484;28;20183;-70
2022/09/07 02:36:48;;;;;;;8.63;2.33;;;;;;;23.43;54.81;97253.59;5062204;28;20216;-72
2022/09/07 02:39:13;;;;;;;5.57;2.23;;;;;;;23.46;54.79;97257.63;5062813;28;20414;-71
2022/09/07 02:41:41;;;;;;;8.77;2.70;;;;;;;23.39;55.29;97249.75;5059784;28;20778;-72
2022/09/07 02:44:12;;;;;;;5.17;2.40;;;;;;;23.40;55.60;97262.06;5049856;28;20269;-70
2022/09/07 02:47:00;;;;;;;4.97;2.10;;;;;;;23.39;55.29;97268.47;5064246;28;20937;-70
2022/09/07 02:49:57;;;;;;;7.37;2.40;;;;;;;23.40;55.76;97282.63;5069964;28;20468;-71
2022/09/07 02:52:27;;;;;;;4.20;2.40;;;;;;;23.43;55.67;97290.19;5063588;28;20448;-71
2022/09/07 02:55:03;;;;;;;4.87;2.20;;;;;;;23.39;55.80;97294.38;5061088;28;20519;-72
2022/09/07 02:57:52;;;;;;;7.40;2.47;;;;;;;23.26;56.53;97274.03;5065063;28;20493;-71
2022/09/07 03:00:24;;;;;;;6.83;2.30;;;;;;;23.34;56.66;97284.38;5049160;28;21219;-72
2022/09/07 03:03:14;;;;;;;4.43;2.53;;;;;;;23.37;56.86;97283.13;5062250;28;20452;-71
2022/09/07 03:05:54;;;;;;;4.53;2.30;;;;;;;23.43;56.97;97284.84;5049640;28;20421;-71
2022/09/07 03:08:25;;;;;;;8.67;2.40;;;;;;;23.47;56.81;97288.69;5063782;28;20826;-70
2022/09/07 03:10:52;;;;;;;8.70;2.90;;;;;;;23.51;56.76;97291.69;5065613;28;20433;-71
2022/09/07 03:13:22;;;;;;;7.50;2.87;;;;;;;23.51;57.05;97283.69;5066286;28;20445;-70
2022/09/07 03:15:48;;;;;;;11.53;2.60;;;;;;;23.52;57.08;97282.63;5065895;28;20417;-71
2022/09/07 03:18:13;;;;;;;5.80;2.80;;;;;;;23.54;57.24;97289.38;5053390;28;20430;-71
2022/09/07 03:20:39;;;;;;;3.70;2.30;;;;;;;23.54;57.57;97296.59;5062279;28;20179;-71
2022/09/07 03:23:04;;;;;;;3.00;2.30;;;;;;;23.46;57.85;97295.88;5053707;28;20220;-71
2022/09/07 03:25:30;;;;;;;5.60;2.93;;;;;;;23.42;57.95;97289.38;5063844;28;20191;-71
2022/09/07 03:27:55;;;;;;;4.43;2.43;;;;;;;23.37;57.61;97278.56;5059892;28;20213;-70
2022/09/07 03:30:21;;;;;;;6.97;2.40;;;;;;;23.37;57.93;97281.25;5054748;28;20659;-71
2022/09/07 03:32:46;;;;;;;10.90;3.00;;;;;;;23.39;57.85;97281.81;5054242;28;20214;-70
2022/09/07 03:35:12;;;;;;;3.10;2.80;;;;;;;23.39;57.83;97281.81;5061910;28;20182;-71
2022/09/07 03:37:38;;;;;;;3.90;2.90;;;;;;;23.40;58.07;97287.97;5065913;28;20274;-71
2022/09/07 03:40:06;;;;;;;6.87;2.60;;;;;;;23.39;57.84;97281.81;5058741;28;20186;-71
2022/09/07 03:42:31;;;;;;;7.87;2.63;;;;;;;23.37;57.97;97275.88;5051812;28;20213;-71
2022/09/07 03:44:56;;;;;;;3.40;2.33;;;;;;;23.35;58.06;97272.63;5059799;28;20905;-72
2022/09/07 03:47:35;;;;;;;4.70;2.83;;;;;;;23.25;58.63;97275.88;5058445;28;20189;-71
2022/09/07 03:50:00;;;;;;;9.63;3.30;;;;;;;23.28;58.66;97286.13;5030278;28;20187;-70
2022/09/07 03:52:26;;;;;;;6.83;2.77;;;;;;;23.28;58.54;97286.13;5045380;28;20459;-71
2022/09/07 03:54:51;;;;;;;8.47;2.67;;;;;;;23.20;58.81;97282.97;5064059;28;20197;-72
2022/09/07 03:57:19;;;;;;;6.33;2.90;;;;;;;23.14;59.21;97282.00;5069248;28;20190;-71
2022/09/07 03:59:48;;;;;;;5.63;2.40;;;;;;;23.09;59.46;97292.59;5059080;28;20186;-73
2022/09/07 04:02:15;;;;;;;5.60;2.87;;;;;;;22.98;59.69;97294.19;5068991;28;20463;-71
2022/09/07 04:04:44;;;;;;;8.37;2.77;;;;;;;23.02;59.66;97300.72;5069230;28;20420;-71
2022/09/07 04:07:11;;;;;;;11.93;3.20;;;;;;;22.94;60.12;97296.53;5071876;28;20508;-73
2022/09/07 04:09:36;;;;;;;3.30;2.40;;;;;;;22.95;59.95;97302.66;5065802;28;20863;-70
2022/09/07 04:12:02;;;;;;;4.00;2.83;;;;;;;22.93;60.10;97294.09;5073510;28;20509;-70
2022/09/07 04:14:27;;;;;;;10.40;2.70;;;;;;;22.91;60.18;97298.84;5068150;28;20189;-70
2022/09/07 04:16:53;;;;;;;6.80;2.60;;;;;;;22.96;60.25;97293.59;5066653;28;20178;-71
2022/09/07 04:19:18;;;;;;;8.50;2.80;;;;;;;22.96;60.13;97294.44;5063037;28;20708;-70
2022/09/07 04:21:45;;;;;;;8.10;3.40;;;;;;;22.91;60.33;97296.97;5060300;28;20208;-71
2022/09/07 04:24:11;;;;;;;5.47;3.37;;;;;;;22.87;60.52;97301.16;5064938;28;20273;-71
2022/09/07 04:26:36;;;;;;;7.10;3.30;;;;;;;22.89;60.43;97295.59;5066817;28;20982;-72
2022/09/07 04:29:03;;;;;;;6.40;3.03;;;;;;;22.90;60.46;97299.88;5073863;28;20285;-71
2022/09/07 04:31:29;;;;;;;8.60;3.50;;;;;;;22.88;60.39;97300.09;5067738;28;21072;-72
2022/09/07 04:33:54;;;;;;;9.30;3.10;;;;;;;22.83;60.44;97300.00;5066045;28;20447;-71
2022/09/07 04:36:21;;;;;;;6.60;4.07;;;;;;;22.80;60.91;97301.28;5069843;28;20513;-71
2022/09/07 04:38:52;;;;;;;6.23;3.30;;;;;;;22.81;60.84;97305.53;5069500;28;20431;-72
2022/09/07 04:41:18;;;;;;;5.53;2.83;;;;;;;22.81;60.75;97297.53;5071072;28;20440;-70
2022/09/07 04:43:44;;;;;;;5.33;3.00;;;;;;;22.78;60.85;97298.00;5070016;28;20450;-70
2022/09/07 04:46:29;;;;;;;5.40;2.90;;;;;;;22.74;60.99;97291.47;5068970;28;20213;-70
2022/09/07 04:48:57;;;;;;;5.63;3.10;;;;;;;22.72;60.86;97287.41;5051250;28;20471;-72
2022/09/07 04:51:24;;;;;;;9.23;3.00;;;;;;;22.74;60.83;97298.69;5052844;28;20434;-72
2022/09/07 04:53:51;;;;;;;6.47;3.30;;;;;;;22.74;60.85;97288.81;5075030;28;20463;-71
2022/09/07 04:56:17;;;;;;;6.90;3.70;;;;;;;22.75;61.03;97293.13;5068325;28;20421;-71
2022/09/07 04:58:43;;;;;;;9.00;3.00;;;;;;;22.75;60.85;97294.94;5063194;28;20958;-72
2022/09/07 05:01:10;;;;;;;7.43;3.07;;;;;;;22.75;61.00;97295.78;5067586;28;20483;-70
2022/09/07 05:03:37;;;;;;;6.00;2.80;;;;;;;22.74;60.92;97296.03;5065334;28;20532;-70
2022/09/07 05:06:03;;;;;;;5.27;3.33;;;;;;;22.74;60.99;97302.16;5068388;28;21064;-71
2022/09/07 05:08:29;;;;;;;5.50;2.90;;;;;;;22.72;61.08;97300.78;5049023;28;20551;-70
2022/09/07 05:10:56;;;;;;;9.77;3.40;;;;;;;22.74;61.10;97301.38;5070870;28;20508;-71
2022/09/07 05:13:21;;;;;;;5.77;3.43;;;;;;;22.73;60.70;97295.19;5065912;28;20294;-70
2022/09/07 05:15:47;;;;;;;6.10;3.60;;;;;;;22.74;60.89;97298.69;5063581;28;20516;-70
2022/09/07 05:18:13;;;;;;;5.63;3.30;;;;;;;22.75;60.99;97298.47;5064265;28;20183;-71
2022/09/07 05:20:40;;;;;;;12.80;3.20;;;;;;;22.77;60.85;97301.72;5056068;28;20183;-70
2022/09/07 05:23:05;;;;;;;6.67;3.10;;;;;;;22.76;60.56;97289.41;5062539;28;20337;-71
2022/09/07 05:25:31;;;;;;;3.93;2.87;;;;;;;22.72;60.71;97296.22;5066356;28;20425;-72
2022/09/07 05:27:56;;;;;;;71.60;5.33;;;;;;;22.75;60.77;97282.44;5069428;28;20209;-70
2022/09/07 05:30:22;;;;;;;13.10;3.87;;;;;;;22.79;60.81;97282.78;5065926;28;20803;-70
2022/09/07 05:32:48;;;;;;;9.43;3.20;;;;;;;22.77;60.78;97280.34;5057258;28;20301;-71
2022/09/07 05:35:14;;;;;;;14.93;3.77;;;;;;;22.81;60.88;97286.03;5065871;28;20209;-72
2022/09/07 05:37:40;;;;;;;10.07;3.87;;;;;;;22.72;60.78;97304.25;5064610;28;20194;-71
2022/09/07 05:40:06;;;;;;;6.93;3.13;;;;;;;22.80;60.77;97308.44;5064765;28;20422;-71
2022/09/07 05:42:34;;;;;;;6.43;3.30;;;;;;;22.90;60.64;97307.91;5064882;28;20214;-72
2022/09/07 05:44:59;;;;;;;9.60;2.90;;;;;;;22.97;60.29;97304.09;5066390;28;20428;-71
2022/09/07 05:47:25;;;;;;;4.83;3.00;;;;;;;23.10;59.92;97311.06;5056136;28;20443;-70
2022/09/07 05:49:50;;;;;;;4.07;2.53;;;;;;;23.20;59.53;97309.69;5044561;28;20222;-71
2022/09/07 05:52:16;;;;;;;7.27;2.60;;;;;;;23.29;58.90;97313.69;5049937;28;20211;-71
2022/09/07 05:54:41;;;;;;;7.23;2.97;;;;;;;23.38;58.70;97319.47;5049089;28;20238;-72
2022/09/07 05:57:09;;;;;;;4.83;2.37;;;;;;;23.44;58.62;97311.34;5050969;28;20243;-72
2022/09/07 05:59:35;;;;;;;4.73;2.73;;;;;;;23.51;58.01;97310.41;5048806;28;20347;-72
2022/09/07 06:02:00;;;;;;;12.07;2.90;;;;;;;23.52;58.05;97315.53;5049193;28;20944;-71
2022/09/07 06:04:26;;;;;;;4.77;2.60;;;;;;;23.50;57.84;97314.97;5051680;28;20187;-71
2022/09/07 06:06:51;;;;;;;6.23;2.83;;;;;;;23.50;57.93;97322.16;5051548;28;20187;-72
2022/09/07 06:09:17;;;;;;;7.50;3.17;;;;;;;23.61;57.74;97316.00;5051906;28;20203;-71
2022/09/07 06:11:42;;;;;;;7.17;2.70;;;;;;;23.75;57.98;97322.72;5050859;28;20984;-72
2022/09/07 06:14:09;;;;;;;7.37;3.07;;;;;;;23.90;57.40;97326.78;5051518;28;20190;-73
2022/09/07 06:16:34;;;;;;;4.73;2.47;;;;;;;24.04;57.01;97324.69;5044058;28;20196;-72
2022/09/07 06:19:05;;;;;;;11.10;3.10;;;;;;;24.18;57.06;97319.88;5052392;28;20428;-72
2022/09/07 06:21:34;;;;;;;5.00;2.60;;;;;;;24.33;56.33;97317.50;5057690;28;20234;-72
2022/09/07 06:23:59;;;;;;;6.00;3.03;;;;;;;24.49;56.65;97312.44;5051847;28;20414;-71
2022/09/07 06:26:25;;;;;;;14.97;10.60;;;;;;;24.66;56.02;97307.94;5050918;28;20432;-72
2022/09/07 06:28:50;;;;;;;33.17;23.60;;;;;;;24.82;55.60;97302.88;5050825;28;20218;-73
2022/09/07 06:31:18;;;;;;;23.80;14.23;;;;;;;24.97;55.33;97303.13;5045092;28;20183;-72
2022/09/07 06:33:44;;;;;;;17.33;6.83;;;;;;;25.14;54.48;97310.34;5049937;28;20203;-72
2022/09/07 06:36:11;;;;;;;12.33;7.93;;;;;;;25.19;53.54;97296.22;5049550;28;20513;-72
2022/09/07 06:38:38;;;;;;;9.90;3.30;;;;;;;25.18;53.28;97295.41;5047573;28;20183;-72
2022/09/07 06:41:05;;;;;;;20.50;15.27;;;;;;;25.17;53.61;97288.41;5049973;28;20456;-74
2022/09/07 06:43:31;;;;;;;28.00;22.00;;;;;;;25.19;53.26;97285.47;5048138;28;20528;-72
2022/09/07 06:45:57;;;;;;;11.60;9.03;;;;;;;25.21;53.34;97286.84;5055051;28;20560;-71
2022/09/07 06:48:22;;;;;;;4.00;3.00;;;;;;;25.17;53.72;97295.63;5050100;28;20215;-72
2022/09/07 06:51:00;;;;;;;10.93;4.57;;;;;;;25.14;53.49;97305.00;5051589;28;20429;-73
2022/09/07 06:53:26;;;;;;;35.20;26.60;;;;;;;25.18;53.57;97316.88;5050321;28;20211;-72
2022/09/07 06:55:52;;;;;;;10.00;4.33;;;;;;;25.15;53.37;97315.47;5051279;28;20424;-72
2022/09/07 06:58:17;;;;;;;24.30;14.20;;;;;;;25.19;53.37;97309.63;5050337;28;20786;-71
2022/09/07 07:00:43;;;;;;;8.67;6.47;;;;;;;25.24;53.50;97305.16;5051208;28;20187;-72
2022/09/07 07:03:09;;;;;;;14.03;6.10;;;;;;;25.25;53.35;97303.28;5050651;28;20210;-72
2022/09/07 07:05:34;;;;;;;12.07;7.50;;;;;;;25.43;53.29;97311.09;5051811;28;20190;-72
2022/09/07 07:08:00;;;;;;;16.30;11.67;;;;;;;25.58;52.94;97307.81;5051898;28;20288;-72
2022/09/07 07:10:25;;;;;;;18.57;10.87;;;;;;;25.83;52.64;97309.25;5051956;28;20186;-73
2022/09/07 07:12:55;;;;;;;14.17;3.60;;;;;;;26.05;51.12;97305.75;5051569;28;20195;-73
2022/09/07 07:15:21;;;;;;;10.10;6.37;;;;;;;26.32;51.15;97307.69;5052316;28;20562;-73
2022/09/07 07:17:47;;;;;;;8.73;5.83;;;;;;;26.60;50.70;97309.31;5049261;28;20421;-72
2022/09/07 07:20:12;;;;;;;11.30;3.13;;;;;;;26.86;49.65;97323.03;5051706;28;20468;-71
2022/09/07 07:22:37;;;;;;;12.20;2.60;;;;;;;27.09;48.93;97332.63;5057004;28;20207;-71
2022/09/07 07:25:03;;;;;;;7.30;2.83;;;;;;;27.19;48.08;97331.09;5047333;28;20651;-71
2022/09/07 07:27:30;;;;;;;6.03;3.40;;;;;;;27.36;47.95;97321.00;5041635;28;20218;-72
2022/09/07 07:29:56;;;;;;;10.13;3.30;;;;;;;27.58;47.79;97325.50;5046776;28;20211;-71
2022/09/07 07:32:21;;;;;;;4.83;2.40;;;;;;;27.77;47.45;97330.44;5049461;28;20441;-71
2022/09/07 07:34:47;;;;;;;9.53;2.57;;;;;;;27.86;46.34;97335.06;5048632;28;20187;-73
2022/09/07 07:37:13;;;;;;;4.73;2.37;;;;;;;28.04;46.16;97341.06;5047410;28;20678;-71
2022/09/07 07:39:40;;;;;;;8.70;4.17;;;;;;;28.23;45.90;97346.03;5050853;28;20623;-72
2022/09/07 07:42:06;;;;;;;25.73;22.80;;;;;;;28.41;45.67;97344.75;5051530;28;20440;-72
2022/09/07 07:44:31;;;;;;;12.17;3.60;;;;;;;28.49;45.19;97352.28;5052692;28;20430;-72
2022/09/07 07:46:57;;;;;;;5.00;2.27;;;;;;;28.58;44.71;97356.13;5049548;28;20179;-70
2022/09/07 07:49:22;;;;;;;5.43;2.40;;;;;;;28.69;44.37;97356.94;5050155;28;20557;-71
2022/09/07 07:51:48;;;;;;;5.03;2.10;;;;;;;28.77;44.11;97353.75;5044287;28;20202;-73
2022/09/07 07:54:13;;;;;;;5.93;2.30;;;;;;;28.88;43.81;97357.25;5049875;28;20215;-72
2022/09/07 07:56:38;;;;;;;6.13;2.57;;;;;;;29.04;43.67;97351.91;5049806;28;20197;-71
2022/09/07 07:59:04;;;;;;;9.10;2.50;;;;;;;29.24;43.65;97359.97;5046203;28;20635;-73
2022/09/07 08:01:29;;;;;;;7.00;2.60;;;;;;;29.43;42.49;97365.66;5050309;28;20270;-71
2022/09/07 08:03:55;;;;;;;5.30;2.20;;;;;;;29.36;42.63;97367.84;5050229;28;20179;-72
2022/09/07 08:06:21;;;;;;;6.30;2.90;;;;;;;29.57;42.18;97376.75;5048362;28;20183;-74
2022/09/07 08:08:46;;;;;;;8.77;2.63;;;;;;;29.79;41.93;97367.50;5050067;28;20247;-71
2022/09/07 08:11:17;;;;;;;7.73;2.37;;;;;;;29.81;41.49;97369.94;5048870;28;20270;-71
2022/09/07 08:13:44;;;;;;;7.90;2.23;;;;;;;29.89;41.70;97377.50;5045230;28;20206;-71
2022/09/07 08:16:10;;;;;;;4.70;2.43;;;;;;;29.98;41.12;97380.47;5049826;28;20432;-72
2022/09/07 08:18:36;;;;;;;13.00;2.80;;;;;;;29.86;41.27;97373.44;5049403;28;20421;-71
2022/09/07 08:21:12;;;;;;;11.97;3.23;;;;;;;30.17;41.04;97370.66;5057386;28;20432;-71
2022/09/07 08:23:39;;;;;;;6.90;2.30;;;;;;;30.37;40.29;97360.84;5043100;28;20456;-71
2022/09/07 08:26:05;;;;;;;12.10;3.50;;;;;;;30.43;40.46;97361.66;5049839;28;20953;-71
2022/09/07 08:28:33;;;;;;;8.13;2.40;;;;;;;30.73;40.38;97371.53;5049638;28;20457;-71
2022/09/07 08:31:03;;;;;;;8.37;2.20;;;;;;;30.97;39.70;97370.00;5043974;28;20516;-71
2022/09/07 08:33:28;;;;;;;12.30;3.30;;;;;;;31.21;39.44;97368.22;5048680;28;20450;-71
2022/09/07 08:36:01;;;;;;;7.43;2.20;;;;;;;31.39;38.73;97365.91;5050110;28;20984;-71
2022/09/07 08:38:31;;;;;;;9.03;3.57;;;;;;;31.65;38.75;97371.91;5046143;28;20208;-72
2022/09/07 08:40:57;;;;;;;11.87;2.93;;;;;;;31.81;38.68;97363.66;5053839;28;20428;-72
2022/09/07 08:43:33;;;;;;;5.90;2.70;;;;;;;31.99;37.70;97368.34;5052166;28;20477;-71
2022/09/07 08:46:23;;;;;;;7.87;3.60;;;;;;;32.15;37.47;97368.13;5056308;28;20456;-72
2022/09/07 08:48:48;;;;;;;6.83;3.10;;;;;;;32.34;37.17;97362.00;5039549;28;20476;-72
2022/09/07 08:51:32;;;;;;;9.93;2.57;;;;;;;32.48;36.43;97365.59;5046172;28;20418;-72
2022/09/07 08:53:58;;;;;;;9.40;3.10;;;;;;;32.69;36.25;97357.19;5051940;28;20187;-73
2022/09/07 08:56:29;;;;;;;4.27;2.20;;;;;;;32.66;36.15;97360.47;5055101;28;20497;-73
2022/09/07 08:58:55;;;;;;;8.00;2.67;;;;;;;32.61;35.93;97356.75;5053609;28;20194;-72
2022/09/07 09:01:27;;;;;;;6.80;3.27;;;;;;;32.82;36.20;97353.75;5052121;28;20807;-72
2022/09/07 09:03:53;;;;;;;7.90;2.90;;;;;;;32.92;35.41;97364.44;5052080;28;20210;-73
2022/09/07 09:06:21;;;;;;;11.10;2.50;;;;;;;32.90;35.46;97360.44;5054470;28;20847;-73
2022/09/07 09:09:02;;;;;;;4.87;2.00;;;;;;;32.99;35.29;97363.28;5059221;28;20226;-72
2022/09/07 09:11:52;;;;;;;8.13;2.47;;;;;;;33.40;35.07;97359.91;5052702;28;20429;-72
2022/09/07 09:14:59;;;;;;;5.83;2.60;;;;;;;33.57;34.12;97361.25;5051760;28;20807;-71
2022/09/07 09:17:29;;;;;;;9.13;2.27;;;;;;;33.81;34.24;97355.66;5034219;28;20441;-71
2022/09/07 09:20:11;;;;;;;5.40;2.47;;;;;;;33.87;33.63;97350.94;5046431;28;20415;-72
2022/09/07 09:22:37;;;;;;;8.77;3.30;;;;;;;33.99;33.77;97343.13;5045604;28;20445;-73
2022/09/07 09:25:15;;;;;;;8.67;3.30;;;;;;;34.26;33.69;97338.78;5035128;28;20429;-72
2022/09/07 09:27:40;;;;;;;8.40;4.90;;;;;;;34.34;33.52;97334.53;5046054;28;20421;-72
2022/09/07 09:30:13;;;;;;;4.97;1.67;;;;;;;34.48;32.06;97331.81;5047976;28;20520;-72
2022/09/07 09:32:41;;;;;;;7.67;2.00;;;;;;;34.81;32.75;97329.69;5052953;28;20281;-73
2022/09/07 09:35:24;;;;;;;9.13;2.10;;;;;;;35.02;31.41;97332.75;5051329;28;20786;-73
2022/09/07 09:37:49;;;;;;;6.27;1.90;;;;;;;34.87;31.57;97335.81;5050788;28;20474;-73
2022/09/07 09:40:24;;;;;;;6.27;2.00;;;;;;;34.95;31.35;97328.84;5050921;28;20836;-72
2022/09/07 09:43:06;;;;;;;9.60;2.07;;;;;;;34.97;31.00;97335.59;5052433;28;20242;-73
2022/09/07 09:45:41;;;;;;;6.80;2.00;;;;;;;35.06;31.55;97332.94;5047751;28;20427;-72
2022/09/07 09:48:30;;;;;;;4.00;1.97;;;;;;;35.20;31.16;97335.56;5046912;28;20552;-74
2022/09/07 09:50:56;;;;;;;9.73;2.00;;;;;;;35.19;31.23;97340.22;5042599;28;20426;-72
2022/09/07 09:53:29;;;;;;;9.20;2.13;;;;;;;35.21;31.25;97334.47;5051108;28;20503;-72
2022/09/07 09:55:54;;;;;;;8.07;2.07;;;;;;;35.27;31.23;97327.78;5051054;28;20422;-72
2022/09/07 09:58:46;;;;;;;4.97;1.77;;;;;;;35.57;30.59;97314.50;5047035;28;20932;-72
2022/09/07 10:01:31;;;;;;;7.90;1.90;;;;;;;35.08;30.36;97302.66;5047029;28;20190;-72
2022/09/07 10:03:59;;;;;;;7.10;2.10;;;;;;;35.33;30.61;97303.94;5052113;28;20432;-72
2022/09/07 10:06:24;;;;;;;3.50;1.50;;;;;;;35.51;30.63;97299.41;5049923;28;20433;-72
2022/09/07 10:08:58;;;;;;;6.27;1.93;;;;;;;35.73;30.39;97298.53;5052072;28;20544;-73
2022/09/07 10:11:47;;;;;;;6.53;2.20;;;;;;;35.86;29.92;97305.00;5050424;28;20186;-72
2022/09/07 10:14:24;;;;;;;6.00;1.87;;;;;;;35.21;29.82;97299.06;5050777;28;20452;-71
2022/09/07 10:16:49;;;;;;;6.70;2.00;;;;;;;34.68;30.47;97303.34;5050232;28;20951;-72
2022/09/07 10:19:37;;;;;;;4.33;1.60;;;;;;;34.22;31.83;97299.69;5051467;28;20508;-74
2022/09/07 10:22:04;;;;;;;5.40;2.00;;;;;;;34.32;31.19;97288.59;5057958;28;20214;-73
2022/09/07 10:24:35;;;;;;;4.50;1.77;;;;;;;34.57;31.32;97294.59;5046259;28;20421;-72
2022/09/07 10:27:18;;;;;;;3.60;1.40;;;;;;;34.87;31.10;97275.94;5050323;28;20432;-73
2022/09/07 10:29:43;;;;;;;8.23;2.00;;;;;;;35.19;29.81;97279.50;5048722;28;20912;-73
2022/09/07 10:32:24;;;;;;;5.63;1.57;;;;;;;35.34;29.93;97272.88;5048584;28;20448;-72
2022/09/07 10:35:15;;;;;;;4.73;1.83;;;;;;;35.62;29.24;97280.84;5049148;28;20182;-72
2022/09/07 10:37:50;;;;;;;7.77;1.53;;;;;;;35.46;29.98;97280.47;5042931;28;20425;-72
2022/09/07 10:40:54;;;;;;;7.20;2.13;;;;;;;34.98;30.23;97281.94;5050827;28;20424;-72
2022/09/07 10:43:37;;;;;;;5.53;1.63;;;;;;;35.15;29.18;97270.38;5041935;28;20447;-72
2022/09/07 10:46:05;;;;;;;6.47;1.90;;;;;;;34.63;29.54;97278.94;5055822;28;20440;-72
2022/09/07 10:48:40;;;;;;;5.13;1.90;;;;;;;34.26;30.72;97274.31;5047602;28;20456;-72
2022/09/07 10:51:13;;;;;;;7.87;2.50;;;;;;;34.14;31.14;97276.75;5043179;28;20959;-72
2022/09/07 10:53:49;;;;;;;5.17;2.20;;;;;;;33.89;31.88;97275.38;5049909;28;20976;-71
2022/09/07 10:56:25;;;;;;;8.50;3.07;;;;;;;33.67;32.33;97279.56;5047782;28;20417;-75
2022/09/07 10:59:20;;;;;;;8.30;2.73;;;;;;;33.51;33.00;97281.78;5049868;28;20516;-73
2022/09/07 11:02:10;;;;;;;6.43;3.80;;;;;;;33.11;33.80;97284.91;5049186;28;20940;-72
2022/09/07 11:04:50;;;;;;;15.73;2.87;;;;;;;32.69;34.71;97278.50;5049865;28;20422;-72
2022/09/07 11:07:47;;;;;;;6.53;2.60;;;;;;;32.60;35.07;97278.38;5048388;28;20440;-71
2022/09/07 11:10:20;;;;;;;5.50;2.17;;;;;;;32.29;35.86;97276.13;5020264;28;20515;-72
2022/09/07 11:12:47;;;;;;;10.97;2.47;;;;;;;32.15;36.36;97265.16;5050886;28;20965;-72
2022/09/07 11:15:12;;;;;;;7.47;2.43;;;;;;;31.97;36.71;97266.75;5049719;28;20433;-73
2022/09/07 11:17:51;;;;;;;10.63;2.77;;;;;;;32.24;37.35;97260.72;5050142;28;20432;-72
2022/09/07 11:20:29;;;;;;;5.53;2.27;;;;;;;32.59;36.51;97268.63;5052326;28;20767;-72
2022/09/07 11:23:13;;;;;;;8.00;2.73;;;;;;;32.82;35.88;97260.72;5051877;28;20823;-72
2022/09/07 11:26:00;;;;;;;9.43;4.73;;;;;;;32.82;35.35;97266.94;5043986;28;20421;-72
2022/09/07 11:28:47;;;;;;;9.43;3.70;;;;;;;32.93;35.14;97254.81;5049919;28;20465;-73
2022/09/07 11:31:23;;;;;;;9.10;2.40;;;;;;;33.08;34.73;97247.50;5044460;28;20440;-71
2022/09/07 11:33:48;;;;;;;7.43;3.00;;;;;;;33.57;34.68;97239.03;5055649;28;20448;-70
2022/09/07 11:36:15;;;;;;;10.10;2.20;;;;;;;33.94;33.55;97240.75;5052192;28;20878;-73
2022/09/07 11:38:45;;;;;;;11.77;3.73;;;;;;;34.14;33.62;97239.50;5042455;28;20195;-72
2022/09/07 11:41:13;;;;;;;7.60;2.00;;;;;;;34.55;32.47;97234.25;5050130;28;20437;-72
2022/09/07 11:43:44;;;;;;;7.63;2.57;;;;;;;34.56;31.88;97230.41;5050652;28;20536;-71
2022/09/07 11:46:22;;;;;;;9.03;2.37;;;;;;;34.56;30.90;97227.69;5051450;28;20920;-72
2022/09/07 11:48:54;;;;;;;8.87;2.47;;;;;;;34.72;31.85;97220.78;5050018;28;20481;-70